createdAt,value
2019-03-30T00:01:21.334Z,32.00
2019-03-30T00:03:52.006Z,29.53
2019-03-30T00:06:22.656Z,30.13
2019-03-30T00:08:53.614Z,30.93
2019-03-30T00:11:24.638Z,29.57
2019-03-30T00:13:56.792Z,31.83
2019-03-30T00:16:27.790Z,28.97
2019-03-30T00:18:58.468Z,30.73
2019-03-30T00:21:29.227Z,29.37
2019-03-30T00:24:00.558Z,29.30
2019-03-30T00:26:33.202Z,30.83
2019-03-30T00:29:04.437Z,31.90
2019-03-30T00:31:35.437Z,33.07
2019-03-30T00:34:06.864Z,29.77
2019-03-30T00:36:38.582Z,29.83
2019-03-30T00:39:10.042Z,29.83
2019-03-30T00:41:45.026Z,30.13
2019-03-30T00:44:15.962Z,31.50
2019-03-30T00:46:47.853Z,30.77
2019-03-30T00:49:19.023Z,30.00
2019-03-30T00:51:50.081Z,33.43
2019-03-30T00:54:20.770Z,29.93
2019-03-30T00:56:51.919Z,31.33
2019-03-30T00:59:23.149Z,31.90
2019-03-30T01:01:54.933Z,31.47
2019-03-30T01:04:25.635Z,29.60
2019-03-30T01:06:56.822Z,32.00
2019-03-30T01:09:27.506Z,32.10
2019-03-30T01:12:01.335Z,32.47
2019-03-30T01:14:32.867Z,33.20
2019-03-30T01:17:04.731Z,30.67
2019-03-30T01:19:35.680Z,32.63
2019-03-30T01:22:06.724Z,33.33
2019-03-30T01:24:37.731Z,31.30
2019-03-30T01:27:08.922Z,31.70
2019-03-30T01:29:39.933Z,30.60
2019-03-30T01:32:11.545Z,32.23
2019-03-30T01:34:42.529Z,32.00
2019-03-30T01:37:13.201Z,34.40
2019-03-30T01:39:44.300Z,30.10
2019-03-30T01:42:15.109Z,32.70
2019-03-30T01:44:45.797Z,32.03
2019-03-30T01:47:17.032Z,32.60
2019-03-30T01:49:48.331Z,34.37
2019-03-30T01:52:19.098Z,33.00
2019-03-30T01:54:50.784Z,34.10
2019-03-30T01:57:21.492Z,33.53
2019-03-30T01:59:52.307Z,37.43
2019-03-30T02:02:24.460Z,33.17
2019-03-30T02:04:55.794Z,34.20
2019-03-30T02:07:29.065Z,35.57
2019-03-30T02:10:00.369Z,34.33
2019-03-30T02:12:31.208Z,36.73
2019-03-30T02:15:02.238Z,36.77
2019-03-30T02:17:33.564Z,36.57
2019-03-30T02:20:09.253Z,35.80
2019-03-30T02:22:39.910Z,38.37
2019-03-30T02:25:11.140Z,37.63
2019-03-30T02:27:42.152Z,37.50
2019-03-30T02:30:13.105Z,35.07
2019-03-30T02:32:44.986Z,34.80
2019-03-30T02:35:16.223Z,39.50
2019-03-30T02:37:46.973Z,39.20
2019-03-30T02:40:17.695Z,38.23
2019-03-30T02:42:48.805Z,36.93
2019-03-30T02:45:19.492Z,39.37
2019-03-30T02:47:50.144Z,36.27
2019-03-30T02:50:20.840Z,35.97
2019-03-30T02:52:51.889Z,38.93
2019-03-30T02:55:22.824Z,39.10
2019-03-30T02:57:54.225Z,38.37
2019-03-30T03:00:24.878Z,36.13
2019-03-30T03:02:56.141Z,38.07
2019-03-30T03:05:28.474Z,40.37
2019-03-30T03:08:00.222Z,36.43
2019-03-30T03:10:30.966Z,41.57
2019-03-30T03:13:03.557Z,36.93
2019-03-30T03:15:35.186Z,36.60
2019-03-30T03:18:06.098Z,38.80
2019-03-30T03:20:36.970Z,40.97
2019-03-30T03:23:07.635Z,39.43
2019-03-30T03:25:38.589Z,43.00
2019-03-30T03:28:09.878Z,40.43
2019-03-30T03:30:40.714Z,40.23
2019-03-30T03:33:11.522Z,40.47
2019-03-30T03:35:42.366Z,40.10
2019-03-30T03:38:13.331Z,40.00
2019-03-30T03:40:43.993Z,40.63
2019-03-30T03:43:16.551Z,37.27
2019-03-30T03:45:47.227Z,40.23
2019-03-30T03:48:18.106Z,39.60
2019-03-30T03:50:53.683Z,39.47
2019-03-30T03:53:24.700Z,41.33
2019-03-30T03:55:56.828Z,39.93
2019-03-30T03:58:30.959Z,41.90
2019-03-30T04:01:04.048Z,44.70
2019-03-30T04:03:35.732Z,40.63
2019-03-30T04:06:07.870Z,45.00
2019-03-30T04:08:41.221Z,46.20
2019-03-30T04:11:14.804Z,43.77
2019-03-30T04:13:48.298Z,40.90
2019-03-30T04:16:19.956Z,42.83
2019-03-30T04:18:50.617Z,44.07
2019-03-30T04:21:21.770Z,42.33
2019-03-30T04:23:54.521Z,41.73
2019-03-30T04:26:25.951Z,45.40
2019-03-30T04:28:57.004Z,45.03
2019-03-30T04:31:28.058Z,42.20
2019-03-30T04:33:58.734Z,44.50
2019-03-30T04:36:29.419Z,45.03
2019-03-30T04:39:00.483Z,43.20
2019-03-30T04:41:31.215Z,41.10
2019-03-30T04:44:01.990Z,44.67
2019-03-30T04:46:32.850Z,42.87
2019-03-30T04:49:03.567Z,42.03
2019-03-30T04:51:34.395Z,42.37
2019-03-30T04:54:05.316Z,43.73
2019-03-30T04:56:36.250Z,44.13
2019-03-30T04:59:06.919Z,43.67
2019-03-30T05:01:37.605Z,42.13
2019-03-30T05:04:08.347Z,43.93
2019-03-30T05:06:39.490Z,41.90
2019-03-30T05:09:10.212Z,44.00
2019-03-30T05:11:41.292Z,43.93
2019-03-30T05:14:12.068Z,43.50
2019-03-30T05:16:43.024Z,40.70
2019-03-30T05:19:13.806Z,44.43
2019-03-30T05:21:45.311Z,41.07
2019-03-30T05:24:16.759Z,41.30
2019-03-30T05:26:47.677Z,43.23
2019-03-30T05:29:18.368Z,44.10
2019-03-30T05:31:49.412Z,41.57
2019-03-30T05:34:20.389Z,41.23
2019-03-30T05:36:51.059Z,40.73
2019-03-30T05:39:21.970Z,43.13
2019-03-30T05:41:52.889Z,38.73
2019-03-30T05:44:23.686Z,40.07
2019-03-30T05:46:57.448Z,41.93
2019-03-30T05:49:28.375Z,39.67
2019-03-30T05:51:59.581Z,39.37
2019-03-30T05:54:30.320Z,39.53
2019-03-30T05:57:01.700Z,37.30
2019-03-30T05:59:32.398Z,39.57
2019-03-30T06:02:03.770Z,36.17
2019-03-30T06:04:34.444Z,36.30
2019-03-30T06:07:06.930Z,38.20
2019-03-30T06:09:39.403Z,35.23
2019-03-30T06:12:10.067Z,35.30
2019-03-30T06:14:41.055Z,35.57
2019-03-30T06:17:11.715Z,36.63
2019-03-30T06:19:42.382Z,35.30
2019-03-30T06:22:13.062Z,37.67
2019-03-30T06:24:44.130Z,38.00
2019-03-30T06:27:14.885Z,35.17
2019-03-30T06:29:48.850Z,37.50
2019-03-30T06:32:19.806Z,35.67
2019-03-30T06:34:50.638Z,35.80
2019-03-30T06:37:22.730Z,39.03
2019-03-30T06:39:53.388Z,35.83
2019-03-30T06:42:24.420Z,37.37
2019-03-30T06:44:55.208Z,38.13
2019-03-30T06:47:26.723Z,35.37
2019-03-30T06:49:58.525Z,37.47
2019-03-30T06:52:29.556Z,38.00
2019-03-30T06:55:02.099Z,36.10
2019-03-30T06:57:33.058Z,36.80
2019-03-30T07:00:04.195Z,38.03
2019-03-30T07:02:35.418Z,34.77
2019-03-30T07:05:09.299Z,35.50
2019-03-30T07:07:42.246Z,37.83
2019-03-30T07:10:14.146Z,34.23
2019-03-30T07:12:46.354Z,35.90
2019-03-30T07:15:17.029Z,34.60
2019-03-30T07:17:48.334Z,35.33
2019-03-30T07:20:30.003Z,33.87
2019-03-30T07:23:11.676Z,34.13
2019-03-30T07:25:33.867Z,37.03
2019-03-30T07:28:04.540Z,34.87
2019-03-30T07:30:35.635Z,35.77
2019-03-30T07:33:08.253Z,34.10
2019-03-30T07:35:39.544Z,33.97
2019-03-30T07:38:10.350Z,32.70
2019-03-30T07:40:41.461Z,33.20
2019-03-30T07:43:13.822Z,33.20
2019-03-30T07:45:45.167Z,31.27
2019-03-30T07:48:16.121Z,33.23
2019-03-30T07:50:47.150Z,31.63
2019-03-30T07:53:26.289Z,30.83
2019-03-30T07:55:51.454Z,31.07
2019-03-30T07:58:22.387Z,31.60
2019-03-30T08:00:53.108Z,32.30
2019-03-30T08:03:24.076Z,29.53
2019-03-30T08:05:54.879Z,32.60
2019-03-30T08:08:25.979Z,30.47
2019-03-30T08:10:56.971Z,31.07
2019-03-30T08:13:27.959Z,31.03
2019-03-30T08:15:58.699Z,29.47
2019-03-30T08:18:29.838Z,28.60
2019-03-30T08:21:00.634Z,29.17
2019-03-30T08:23:40.126Z,29.70
2019-03-30T08:26:04.936Z,29.67
2019-03-30T08:28:36.049Z,29.73
2019-03-30T08:31:06.771Z,27.43
2019-03-30T08:33:38.376Z,25.33
2019-03-30T08:36:10.358Z,23.83
2019-03-30T08:38:41.043Z,28.10
2019-03-30T08:41:11.705Z,26.40
2019-03-30T08:43:42.436Z,25.10
2019-03-30T08:46:13.097Z,27.50
2019-03-30T08:48:43.815Z,26.77
2019-03-30T08:51:14.523Z,27.13
2019-03-30T08:53:54.492Z,27.90
2019-03-30T08:56:17.945Z,22.50
2019-03-30T08:58:48.612Z,23.83
2019-03-30T09:01:19.314Z,22.30
2019-03-30T09:03:51.206Z,22.00
2019-03-30T09:06:22.168Z,24.77
2019-03-30T09:08:52.860Z,23.63
2019-03-30T09:11:23.740Z,23.10
2019-03-30T09:13:54.673Z,23.10
2019-03-30T09:16:25.599Z,25.03
2019-03-30T09:18:56.668Z,23.00
2019-03-30T09:21:27.314Z,23.03
2019-03-30T09:24:09.479Z,22.13
2019-03-30T09:26:30.647Z,25.23
2019-03-30T09:29:01.376Z,21.87
2019-03-30T09:31:32.299Z,21.07
2019-03-30T09:34:03.649Z,20.03
2019-03-30T09:36:34.478Z,21.70
2019-03-30T09:39:07.856Z,19.63
2019-03-30T09:41:39.028Z,19.27
2019-03-30T09:44:09.706Z,18.33
2019-03-30T09:46:40.378Z,14.80
2019-03-30T09:49:11.083Z,16.67
2019-03-30T09:51:41.839Z,16.50
2019-03-30T09:54:23.747Z,15.27
2019-03-30T09:56:46.033Z,15.20
2019-03-30T09:59:17.006Z,18.73
2019-03-30T10:01:48.667Z,14.23
2019-03-30T10:04:19.604Z,14.27
2019-03-30T10:06:50.286Z,14.63
2019-03-30T10:09:21.370Z,12.63
2019-03-30T10:11:52.055Z,13.73
2019-03-30T10:14:23.054Z,13.50
2019-03-30T10:16:53.807Z,14.17
2019-03-30T10:19:27.797Z,16.77
2019-03-30T10:21:58.697Z,14.67
2019-03-30T10:24:37.981Z,14.27
2019-03-30T10:27:03.446Z,10.30
2019-03-30T10:29:34.414Z,7.90
2019-03-30T10:32:06.309Z,8.70
2019-03-30T10:34:39.738Z,7.60
2019-03-30T10:37:11.814Z,7.93
2019-03-30T10:39:42.578Z,7.53
2019-03-30T10:42:13.327Z,7.63
2019-03-30T10:44:44.042Z,7.60
2019-03-30T10:47:14.986Z,8.23
2019-03-30T10:49:46.848Z,8.30
2019-03-30T10:52:17.602Z,7.67
2019-03-30T10:54:52.803Z,8.60
2019-03-30T10:57:21.812Z,8.03
2019-03-30T10:59:52.991Z,8.70
2019-03-30T11:02:24.001Z,8.40
2019-03-30T11:04:57.896Z,7.97
2019-03-30T11:07:29.026Z,7.80
2019-03-30T11:10:03.254Z,7.83
2019-03-30T11:12:33.934Z,8.20
2019-03-30T11:15:07.092Z,8.70
2019-03-30T11:17:38.702Z,7.90
2019-03-30T11:20:10.049Z,7.83
2019-03-30T11:22:40.743Z,8.40
2019-03-30T11:25:11.535Z,8.57
2019-03-30T11:27:42.278Z,8.07
2019-03-30T11:30:13.539Z,9.03
2019-03-30T11:32:44.695Z,8.63
2019-03-30T11:35:17.313Z,7.40
2019-03-30T11:37:48.589Z,8.00
2019-03-30T11:40:19.377Z,7.40
2019-03-30T11:42:52.172Z,8.03
2019-03-30T11:45:22.865Z,8.87
2019-03-30T11:47:53.992Z,8.37
2019-03-30T11:50:24.650Z,8.73
2019-03-30T11:52:55.431Z,7.97
2019-03-30T11:55:26.523Z,7.77
2019-03-30T11:57:58.535Z,8.33
2019-03-30T12:00:29.564Z,8.20
2019-03-30T12:03:00.680Z,8.80
2019-03-30T12:05:31.790Z,8.80
2019-03-30T12:08:02.815Z,7.80
2019-03-30T12:10:33.500Z,8.20
2019-03-30T12:13:04.367Z,9.07
2019-03-30T12:15:35.413Z,8.80
2019-03-30T12:18:06.381Z,8.63
2019-03-30T12:20:37.342Z,8.97
2019-03-30T12:23:08.355Z,8.00
2019-03-30T12:25:39.024Z,8.50
2019-03-30T12:28:09.981Z,9.20
2019-03-30T12:30:40.902Z,9.40
2019-03-30T12:33:11.611Z,9.10
2019-03-30T12:35:42.526Z,9.53
2019-03-30T12:38:13.452Z,8.97
2019-03-30T12:40:44.356Z,9.93
2019-03-30T12:43:15.032Z,9.07
2019-03-30T12:45:45.965Z,9.30
2019-03-30T12:48:17.638Z,9.17
2019-03-30T12:50:48.312Z,10.33
2019-03-30T12:53:19.265Z,10.37
2019-03-30T12:55:49.959Z,10.27
2019-03-30T12:58:20.653Z,11.23
2019-03-30T13:00:51.359Z,10.57
2019-03-30T13:03:22.359Z,10.27
2019-03-30T13:05:53.316Z,10.67
2019-03-30T13:08:24.302Z,11.17
2019-03-30T13:10:55.266Z,11.67
2019-03-30T13:13:26.311Z,11.60
2019-03-30T13:15:57.234Z,11.43
2019-03-30T13:18:28.193Z,11.53
2019-03-30T13:20:59.335Z,12.03
2019-03-30T13:23:30.279Z,11.37
2019-03-30T13:26:04.057Z,11.03
2019-03-30T13:28:33.681Z,11.67
2019-03-30T13:31:04.462Z,11.00
2019-03-30T13:33:35.464Z,12.07
2019-03-30T13:36:10.682Z,12.10
2019-03-30T13:38:41.164Z,11.57
2019-03-30T13:41:14.080Z,11.73
2019-03-30T13:43:44.228Z,11.77
2019-03-30T13:46:14.925Z,11.20
2019-03-30T13:48:45.998Z,13.10
2019-03-30T13:51:16.976Z,12.27
2019-03-30T13:53:48.035Z,11.93
2019-03-30T13:56:22.518Z,12.77
2019-03-30T13:58:53.557Z,12.63
2019-03-30T14:01:24.236Z,12.10
2019-03-30T14:03:54.926Z,12.47
2019-03-30T14:06:25.801Z,10.87
2019-03-30T14:08:59.311Z,12.40
2019-03-30T14:11:32.787Z,11.63
2019-03-30T14:14:03.924Z,12.63
2019-03-30T14:16:35.664Z,11.90
2019-03-30T14:19:06.787Z,10.93
2019-03-30T14:21:37.457Z,11.63
2019-03-30T14:24:08.154Z,11.50
2019-03-30T14:26:40.158Z,12.47
2019-03-30T14:29:11.181Z,10.70
2019-03-30T14:31:42.012Z,11.70
2019-03-30T14:34:12.978Z,10.97
2019-03-30T14:36:43.987Z,10.50
2019-03-30T14:39:15.121Z,10.33
2019-03-30T14:41:46.958Z,73.03
2019-03-30T14:44:17.932Z,124.70
2019-03-30T14:46:48.633Z,439.80
2019-03-30T14:49:21.151Z,255.10
2019-03-30T14:51:52.084Z,161.80
2019-03-30T14:54:24.400Z,75.53
2019-03-30T14:56:55.890Z,31.90
2019-03-30T14:59:26.589Z,13.20
2019-03-30T15:01:57.228Z,10.27
2019-03-30T15:04:28.248Z,10.63
2019-03-30T15:06:58.961Z,11.70
2019-03-30T15:09:30.732Z,12.37
2019-03-30T15:12:01.425Z,11.30
2019-03-30T15:14:32.238Z,10.57
2019-03-30T15:17:02.893Z,10.00
2019-03-30T15:19:33.743Z,10.60
2019-03-30T15:22:04.939Z,11.73
2019-03-30T15:24:36.017Z,11.50
2019-03-30T15:27:06.689Z,11.33
2019-03-30T15:29:37.701Z,11.30
2019-03-30T15:32:08.411Z,11.07
2019-03-30T15:34:39.175Z,12.00
2019-03-30T15:37:10.058Z,10.90
2019-03-30T15:39:41.275Z,10.87
2019-03-30T15:42:12.039Z,9.67
2019-03-30T15:44:42.729Z,11.97
2019-03-30T15:47:13.643Z,11.37
2019-03-30T15:49:44.683Z,11.50
2019-03-30T15:52:15.673Z,11.03
2019-03-30T15:54:46.661Z,10.77
2019-03-30T15:57:17.707Z,11.90
2019-03-30T15:59:48.375Z,11.27
2019-03-30T16:02:19.310Z,10.57
2019-03-30T16:04:50.228Z,12.20
2019-03-30T16:07:20.916Z,12.93
2019-03-30T16:09:51.914Z,10.70
2019-03-30T16:12:22.870Z,11.07
2019-03-30T16:14:53.847Z,11.10
2019-03-30T16:17:24.914Z,10.43
2019-03-30T16:19:55.842Z,11.17
2019-03-30T16:22:26.944Z,10.47
2019-03-30T16:24:57.940Z,10.30
2019-03-30T16:27:29.616Z,10.80
2019-03-30T16:30:00.584Z,10.87
2019-03-30T16:32:31.603Z,11.93
2019-03-30T16:35:02.380Z,11.00
2019-03-30T16:37:33.047Z,10.53
2019-03-30T16:40:06.316Z,11.23
2019-03-30T16:42:38.176Z,11.13
2019-03-30T16:45:09.381Z,10.63
2019-03-30T16:47:40.377Z,11.10
2019-03-30T16:50:11.747Z,11.33
2019-03-30T16:52:42.442Z,11.13
2019-03-30T16:55:13.739Z,11.37
2019-03-30T16:57:44.780Z,13.23
2019-03-30T17:00:16.429Z,11.83
2019-03-30T17:02:47.439Z,12.00
2019-03-30T17:05:18.151Z,11.60
2019-03-30T17:07:49.116Z,11.93
2019-03-30T17:10:20.564Z,12.63
2019-03-30T17:12:51.602Z,11.87
2019-03-30T17:15:22.288Z,13.13
2019-03-30T17:17:53.241Z,13.57
2019-03-30T17:20:24.208Z,12.07
2019-03-30T17:22:58.599Z,11.67
2019-03-30T17:25:27.771Z,13.43
2019-03-30T17:27:59.113Z,12.00
2019-03-30T17:30:31.128Z,11.47
2019-03-30T17:33:02.072Z,13.13
2019-03-30T17:35:33.013Z,12.30
2019-03-30T17:38:04.060Z,13.73
2019-03-30T17:40:34.740Z,13.00
2019-03-30T17:43:05.576Z,13.50
2019-03-30T17:45:36.272Z,13.47
2019-03-30T17:48:07.322Z,13.47
2019-03-30T17:50:38.453Z,12.97
2019-03-30T17:53:09.674Z,13.50
2019-03-30T17:55:40.457Z,14.77
2019-03-30T17:58:13.288Z,13.30
2019-03-30T18:00:44.364Z,14.47
2019-03-30T18:03:15.294Z,14.77
2019-03-30T18:05:46.246Z,14.03
2019-03-30T18:08:17.405Z,16.13
2019-03-30T18:10:48.106Z,14.93
2019-03-30T18:13:18.779Z,14.90
2019-03-30T18:15:49.540Z,14.43
2019-03-30T18:18:20.511Z,15.23
2019-03-30T18:20:55.108Z,17.23
2019-03-30T18:23:24.722Z,17.97
2019-03-30T18:25:56.368Z,17.93
2019-03-30T18:28:27.737Z,16.70
2019-03-30T18:30:58.996Z,15.73
2019-03-30T18:33:30.452Z,17.73
2019-03-30T18:36:01.806Z,17.47
2019-03-30T18:38:36.756Z,15.97
2019-03-30T18:41:10.306Z,17.13
2019-03-30T18:43:41.363Z,18.70
2019-03-30T18:46:12.767Z,18.30
2019-03-30T18:48:43.916Z,16.37
2019-03-30T18:51:15.521Z,16.47
2019-03-30T18:53:47.697Z,27.77
2019-03-30T18:56:20.460Z,22.20
2019-03-30T18:58:51.550Z,23.17
2019-03-30T19:01:23.072Z,56.63
2019-03-30T19:03:54.521Z,65.03
2019-03-30T19:06:25.254Z,38.50
2019-03-30T19:08:56.309Z,29.40
2019-03-30T19:11:27.087Z,26.37
2019-03-30T19:13:58.022Z,26.90
2019-03-30T19:16:29.148Z,26.03
2019-03-30T19:19:00.144Z,24.87
2019-03-30T19:21:30.826Z,28.97
2019-03-30T19:24:01.827Z,27.00
2019-03-30T19:26:32.747Z,26.77
2019-03-30T19:29:03.700Z,30.13
2019-03-30T19:31:34.619Z,31.33
2019-03-30T19:34:05.579Z,33.77
2019-03-30T19:36:36.525Z,37.47
2019-03-30T19:39:10.030Z,43.37
2019-03-30T19:41:40.985Z,36.97
2019-03-30T19:44:12.381Z,34.33
2019-03-30T19:46:43.654Z,35.07
2019-03-30T19:49:14.692Z,31.60
2019-03-30T19:51:45.382Z,37.07
2019-03-30T19:54:16.103Z,37.70
2019-03-30T19:56:47.102Z,40.23
2019-03-30T19:59:17.764Z,38.97
2019-03-30T20:01:48.864Z,37.93
2019-03-30T20:04:19.903Z,40.57
2019-03-30T20:06:51.822Z,41.37
2019-03-30T20:09:22.861Z,41.73
2019-03-30T20:11:53.846Z,38.23
2019-03-30T20:14:24.517Z,43.17
2019-03-30T20:16:55.476Z,40.87
2019-03-30T20:19:26.161Z,39.50
2019-03-30T20:21:57.583Z,37.63
2019-03-30T20:24:28.715Z,39.80
2019-03-30T20:27:00.195Z,38.13
2019-03-30T20:29:30.873Z,37.33
2019-03-30T20:32:01.838Z,38.43
2019-03-30T20:34:33.945Z,36.93
2019-03-30T20:37:04.721Z,36.93
2019-03-30T20:39:35.388Z,37.67
2019-03-30T20:42:06.317Z,40.77
2019-03-30T20:44:37.287Z,35.90
2019-03-30T20:47:08.322Z,36.03
2019-03-30T20:49:39.392Z,41.80
2019-03-30T20:52:10.064Z,46.37
2019-03-30T20:54:41.038Z,38.00
2019-03-30T20:57:11.780Z,31.97
2019-03-30T20:59:42.507Z,32.60
2019-03-30T21:02:13.795Z,31.33
2019-03-30T21:04:44.481Z,30.17
2019-03-30T21:07:15.256Z,31.63
2019-03-30T21:09:46.265Z,29.60
2019-03-30T21:12:17.036Z,31.07
2019-03-30T21:14:47.962Z,31.33
2019-03-30T21:17:19.130Z,30.90
2019-03-30T21:19:50.205Z,31.57
2019-03-30T21:22:21.032Z,29.53
2019-03-30T21:24:53.079Z,32.13
2019-03-30T21:27:23.828Z,30.23
2019-03-30T21:29:55.295Z,32.43
2019-03-30T21:32:26.063Z,32.20
2019-03-30T21:34:57.044Z,29.27
2019-03-30T21:37:28.139Z,29.50
2019-03-30T21:39:59.079Z,29.17
2019-03-30T21:42:30.014Z,29.53
2019-03-30T21:45:00.830Z,29.10
2019-03-30T21:47:31.702Z,28.03
2019-03-30T21:50:02.858Z,32.23
2019-03-30T21:52:33.803Z,30.57
2019-03-30T21:55:05.380Z,29.67
2019-03-30T21:57:36.180Z,29.37
2019-03-30T22:00:12.520Z,28.47
2019-03-30T22:02:43.687Z,27.23
2019-03-30T22:05:14.683Z,30.50
2019-03-30T22:07:45.790Z,28.60
2019-03-30T22:10:21.401Z,30.13
2019-03-30T22:12:52.364Z,30.43
2019-03-30T22:15:29.202Z,29.93
2019-03-30T22:18:00.262Z,28.20
2019-03-30T22:20:31.056Z,27.83
2019-03-30T22:23:01.770Z,30.27
2019-03-30T22:25:32.916Z,29.50
2019-03-30T22:28:04.358Z,30.93
2019-03-30T22:30:36.211Z,28.20
2019-03-30T22:33:08.267Z,26.90
2019-03-30T22:35:40.412Z,27.43
2019-03-30T22:38:11.089Z,26.87
2019-03-30T22:40:41.826Z,27.17
2019-03-30T22:43:13.085Z,26.97
2019-03-30T22:45:45.516Z,26.83
2019-03-30T22:48:17.266Z,26.07
2019-03-30T22:50:48.288Z,26.60
2019-03-30T22:53:19.223Z,28.47
2019-03-30T22:55:51.715Z,26.50
2019-03-30T22:58:22.835Z,27.57
2019-03-30T23:01:10.066Z,26.70
2019-03-30T23:03:43.014Z,28.33
2019-03-30T23:06:14.216Z,27.80
2019-03-30T23:08:44.904Z,27.53
2019-03-30T23:11:15.546Z,26.80
2019-03-30T23:13:48.083Z,28.97
2019-03-30T23:16:18.750Z,28.20
2019-03-30T23:18:50.834Z,28.57
2019-03-30T23:21:22.119Z,28.80
2019-03-30T23:23:53.834Z,28.90
2019-03-30T23:26:25.121Z,28.30
2019-03-30T23:28:59.301Z,28.43
2019-03-30T23:31:31.198Z,29.80
2019-03-30T23:34:02.045Z,32.23
2019-03-30T23:36:32.952Z,29.40
2019-03-30T23:39:06.028Z,28.30
2019-03-30T23:41:37.406Z,26.60
2019-03-30T23:44:08.082Z,29.87
2019-03-30T23:46:39.181Z,27.37
2019-03-30T23:49:10.193Z,29.37
2019-03-30T23:51:41.678Z,28.53
2019-03-30T23:54:16.450Z,32.70
2019-03-30T23:56:47.105Z,28.13
2019-03-30T23:59:18.395Z,29.13
